sensor_id;sensor_type;location;lat;lon;timestamp;pressure;altitude;pressure_sealevel;temperature;humidity
31082;BME280;17737;52.586;13.284;2023-07-16T00:00:27;100279.66;;;23.34;84.00
31082;BME280;17737;52.586;13.284;2023-07-16T00:02:55;100285.91;;;23.29;84.35
31082;BME280;17737;52.586;13.284;2023-07-16T00:05:24;100286.69;;;23.25;84.74
31082;BME280;17737;52.586;13.284;2023-07-16T00:07:52;100283.44;;;23.28;85.00
31082;BME280;17737;52.586;13.284;2023-07-16T00:10:20;100281.25;;;23.30;85.46
31082;BME280;17737;52.586;13.284;2023-07-16T00:12:49;100269.41;;;23.29;84.95
31082;BME280;17737;52.586;13.284;2023-07-16T00:15:17;100269.72;;;23.33;85.04
31082;BME280;17737;52.586;13.284;2023-07-16T00:17:45;100260.09;;;23.30;85.82
31082;BME280;17737;52.586;13.284;2023-07-16T00:20:13;100255.88;;;23.23;86.97
31082;BME280;17737;52.586;13.284;2023-07-16T00:22:42;100264.38;;;23.21;87.67
31082;BME280;17737;52.586;13.284;2023-07-16T00:27:38;100272.31;;;23.18;88.24
31082;BME280;17737;52.586;13.284;2023-07-16T00:30:07;100280.59;;;23.23;88.08
31082;BME280;17737;52.586;13.284;2023-07-16T00:32:36;100277.28;;;23.21;88.25
31082;BME280;17737;52.586;13.284;2023-07-16T00:35:05;100290.59;;;23.29;88.35
31082;BME280;17737;52.586;13.284;2023-07-16T00:37:33;100284.84;;;23.30;87.49
31082;BME280;17737;52.586;13.284;2023-07-16T00:40:04;100296.41;;;23.32;86.95
31082;BME280;17737;52.586;13.284;2023-07-16T00:42:34;100307.41;;;23.32;86.78
31082;BME280;17737;52.586;13.284;2023-07-16T00:45:02;100314.84;;;23.37;86.30
31082;BME280;17737;52.586;13.284;2023-07-16T00:47:39;100330.22;;;23.33;86.30
31082;BME280;17737;52.586;13.284;2023-07-16T00:50:09;100346.69;;;23.33;86.08
31082;BME280;17737;52.586;13.284;2023-07-16T00:52:39;100357.44;;;23.34;85.52
31082;BME280;17737;52.586;13.284;2023-07-16T00:55:09;100372.03;;;23.35;85.70
31082;BME280;17737;52.586;13.284;2023-07-16T00:57:38;100383.03;;;23.35;86.66
31082;BME280;17737;52.586;13.284;2023-07-16T01:00:08;100395.44;;;23.37;86.62
31082;BME280;17737;52.586;13.284;2023-07-16T01:02:39;100404.81;;;23.41;86.71
31082;BME280;17737;52.586;13.284;2023-07-16T01:05:07;100419.13;;;23.43;86.19
31082;BME280;17737;52.586;13.284;2023-07-16T01:07:37;100429.28;;;23.43;85.05
31082;BME280;17737;52.586;13.284;2023-07-16T01:10:13;100436.81;;;23.52;83.43
31082;BME280;17737;52.586;13.284;2023-07-16T01:12:42;100453.31;;;23.52;83.80
31082;BME280;17737;52.586;13.284;2023-07-16T01:15:10;100468.72;;;23.53;84.59
31082;BME280;17737;52.586;13.284;2023-07-16T01:17:38;100462.91;;;23.50;85.35
31082;BME280;17737;52.586;13.284;2023-07-16T01:20:07;100488.56;;;23.55;85.96
31082;BME280;17737;52.586;13.284;2023-07-16T01:22:58;100521.91;;;23.64;83.79
31082;BME280;17737;52.586;13.284;2023-07-16T01:26:01;100526.53;;;23.58;84.33
31082;BME280;17737;52.586;13.284;2023-07-16T01:29:18;100536.34;;;23.49;86.63
31082;BME280;17737;52.586;13.284;2023-07-16T01:31:56;100557.97;;;23.24;89.06
31082;BME280;17737;52.586;13.284;2023-07-16T01:34:28;100602.22;;;22.68;100.00
31082;BME280;17737;52.586;13.284;2023-07-16T01:37:00;100594.31;;;21.54;100.00
31082;BME280;17737;52.586;13.284;2023-07-16T01:39:28;100600.06;;;21.53;100.00
31082;BME280;17737;52.586;13.284;2023-07-16T01:41:57;100596.38;;;21.47;100.00
31082;BME280;17737;52.586;13.284;2023-07-16T01:44:26;100602.72;;;21.36;100.00
31082;BME280;17737;52.586;13.284;2023-07-16T01:47:04;100598.91;;;21.37;100.00
31082;BME280;17737;52.586;13.284;2023-07-16T01:49:36;100605.38;;;21.31;100.00
31082;BME280;17737;52.586;13.284;2023-07-16T01:52:06;100593.34;;;21.20;100.00
31082;BME280;17737;52.586;13.284;2023-07-16T01:54:34;100611.94;;;21.18;100.00
31082;BME280;17737;52.586;13.284;2023-07-16T01:57:02;100612.28;;;21.22;100.00
31082;BME280;17737;52.586;13.284;2023-07-16T01:59:32;100617.78;;;21.22;100.00
31082;BME280;17737;52.586;13.284;2023-07-16T02:02:00;100623.25;;;21.22;100.00
31082;BME280;17737;52.586;13.284;2023-07-16T02:04:29;100618.25;;;21.19;100.00
31082;BME280;17737;52.586;13.284;2023-07-16T02:06:57;100619.44;;;21.23;100.00
31082;BME280;17737;52.586;13.284;2023-07-16T02:09:25;100622.53;;;21.26;100.00
31082;BME280;17737;52.586;13.284;2023-07-16T02:11:52;100617.06;;;21.26;100.00
31082;BME280;17737;52.586;13.284;2023-07-16T02:14:21;100611.69;;;21.31;100.00
31082;BME280;17737;52.586;13.284;2023-07-16T02:16:50;100623.56;;;21.37;100.00
31082;BME280;17737;52.586;13.284;2023-07-16T02:19:18;100604.13;;;21.50;100.00
31082;BME280;17737;52.586;13.284;2023-07-16T02:21:46;100577.06;;;21.54;100.00
31082;BME280;17737;52.586;13.284;2023-07-16T02:24:14;100608.22;;;21.36;100.00
31082;BME280;17737;52.586;13.284;2023-07-16T02:26:42;100609.22;;;20.84;100.00
31082;BME280;17737;52.586;13.284;2023-07-16T02:29:10;100608.13;;;20.73;100.00
31082;BME280;17737;52.586;13.284;2023-07-16T02:31:38;100596.09;;;20.63;100.00
31082;BME280;17737;52.586;13.284;2023-07-16T02:34:08;100600.34;;;20.36;100.00
31082;BME280;17737;52.586;13.284;2023-07-16T02:36:36;100610.81;;;20.39;100.00
31082;BME280;17737;52.586;13.284;2023-07-16T02:39:04;100585.47;;;20.32;100.00
31082;BME280;17737;52.586;13.284;2023-07-16T02:41:32;100578.81;;;20.39;100.00
31082;BME280;17737;52.586;13.284;2023-07-16T02:44:00;100562.03;;;20.36;100.00
31082;BME280;17737;52.586;13.284;2023-07-16T02:46:32;100575.84;;;20.29;100.00
31082;BME280;17737;52.586;13.284;2023-07-16T02:49:00;100585.94;;;20.29;100.00
31082;BME280;17737;52.586;13.284;2023-07-16T02:51:30;100600.47;;;20.29;100.00
31082;BME280;17737;52.586;13.284;2023-07-16T02:53:58;100607.09;;;20.33;100.00
31082;BME280;17737;52.586;13.284;2023-07-16T02:56:26;100618.78;;;20.29;100.00
31082;BME280;17737;52.586;13.284;2023-07-16T02:58:55;100622.09;;;20.31;100.00
31082;BME280;17737;52.586;13.284;2023-07-16T03:01:23;100614.50;;;20.33;100.00
31082;BME280;17737;52.586;13.284;2023-07-16T03:03:51;100622.72;;;20.33;100.00
31082;BME280;17737;52.586;13.284;2023-07-16T03:06:19;100614.88;;;20.36;100.00
31082;BME280;17737;52.586;13.284;2023-07-16T03:08:49;100607.84;;;20.40;100.00
31082;BME280;17737;52.586;13.284;2023-07-16T03:11:18;100611.66;;;20.39;100.00
31082;BME280;17737;52.586;13.284;2023-07-16T03:13:46;100599.03;;;20.38;100.00
31082;BME280;17737;52.586;13.284;2023-07-16T03:16:14;100584.06;;;20.41;100.00
31082;BME280;17737;52.586;13.284;2023-07-16T03:18:43;100591.41;;;20.40;100.00
31082;BME280;17737;52.586;13.284;2023-07-16T03:21:11;100589.75;;;20.28;100.00
31082;BME280;17737;52.586;13.284;2023-07-16T03:23:40;100571.53;;;20.33;100.00
31082;BME280;17737;52.586;13.284;2023-07-16T03:26:09;100559.78;;;20.67;100.00
31082;BME280;17737;52.586;13.284;2023-07-16T03:28:37;100559.19;;;20.42;100.00
31082;BME280;17737;52.586;13.284;2023-07-16T03:31:05;100577.25;;;20.32;100.00
31082;BME280;17737;52.586;13.284;2023-07-16T03:33:33;100615.56;;;20.32;100.00
31082;BME280;17737;52.586;13.284;2023-07-16T03:36:01;100608.19;;;20.32;100.00
31082;BME280;17737;52.586;13.284;2023-07-16T03:38:29;100595.94;;;20.35;100.00
31082;BME280;17737;52.586;13.284;2023-07-16T03:40:57;100589.41;;;20.36;100.00
31082;BME280;17737;52.586;13.284;2023-07-16T03:43:27;100592.13;;;20.36;100.00
31082;BME280;17737;52.586;13.284;2023-07-16T03:45:56;100619.03;;;20.39;100.00
31082;BME280;17737;52.586;13.284;2023-07-16T03:48:23;100632.59;;;20.34;100.00
31082;BME280;17737;52.586;13.284;2023-07-16T03:50:52;100635.19;;;20.29;100.00
31082;BME280;17737;52.586;13.284;2023-07-16T03:53:20;100631.16;;;20.31;100.00
31082;BME280;17737;52.586;13.284;2023-07-16T03:55:48;100613.44;;;20.34;100.00
31082;BME280;17737;52.586;13.284;2023-07-16T03:58:16;100619.75;;;20.34;100.00
31082;BME280;17737;52.586;13.284;2023-07-16T04:00:45;100620.34;;;20.36;100.00
31082;BME280;17737;52.586;13.284;2023-07-16T04:03:13;100636.28;;;20.28;100.00
31082;BME280;17737;52.586;13.284;2023-07-16T04:05:41;100636.63;;;20.31;100.00
31082;BME280;17737;52.586;13.284;2023-07-16T04:08:09;100627.25;;;20.39;100.00
31082;BME280;17737;52.586;13.284;2023-07-16T04:10:37;100627.59;;;20.31;100.00
31082;BME280;17737;52.586;13.284;2023-07-16T04:13:05;100622.09;;;20.31;100.00
31082;BME280;17737;52.586;13.284;2023-07-16T04:15:33;100605.81;;;20.36;100.00
31082;BME280;17737;52.586;13.284;2023-07-16T04:18:02;100599.88;;;20.39;100.00
31082;BME280;17737;52.586;13.284;2023-07-16T04:20:31;100595.59;;;20.43;100.00
31082;BME280;17737;52.586;13.284;2023-07-16T04:23:00;100605.34;;;20.39;100.00
31082;BME280;17737;52.586;13.284;2023-07-16T04:25:28;100613.31;;;20.40;100.00
31082;BME280;17737;52.586;13.284;2023-07-16T04:27:56;100616.78;;;20.36;100.00
31082;BME280;17737;52.586;13.284;2023-07-16T04:30:24;100616.78;;;20.36;100.00
31082;BME280;17737;52.586;13.284;2023-07-16T04:32:53;100629.84;;;20.34;100.00
31082;BME280;17737;52.586;13.284;2023-07-16T04:35:22;100626.38;;;20.38;100.00
31082;BME280;17737;52.586;13.284;2023-07-16T04:37:50;100643.66;;;20.39;100.00
31082;BME280;17737;52.586;13.284;2023-07-16T04:40:18;100650.44;;;20.36;100.00
31082;BME280;17737;52.586;13.284;2023-07-16T04:42:46;100624.75;;;20.37;100.00
31082;BME280;17737;52.586;13.284;2023-07-16T04:45:14;100634.84;;;20.37;100.00
31082;BME280;17737;52.586;13.284;2023-07-16T04:47:42;100654.72;;;20.32;100.00
31082;BME280;17737;52.586;13.284;2023-07-16T04:50:10;100666.56;;;20.26;100.00
31082;BME280;17737;52.586;13.284;2023-07-16T04:52:40;100671.38;;;20.31;100.00
31082;BME280;17737;52.586;13.284;2023-07-16T04:55:08;100675.28;;;20.35;100.00
31082;BME280;17737;52.586;13.284;2023-07-16T04:57:37;100672.47;;;20.41;100.00
31082;BME280;17737;52.586;13.284;2023-07-16T05:00:06;100670.19;;;20.38;100.00
31082;BME280;17737;52.586;13.284;2023-07-16T05:02:35;100664.84;;;20.43;100.00
31082;BME280;17737;52.586;13.284;2023-07-16T05:05:04;100690.44;;;20.49;100.00
31082;BME280;17737;52.586;13.284;2023-07-16T05:07:33;100705.06;;;20.43;100.00
31082;BME280;17737;52.586;13.284;2023-07-16T05:10:03;100693.56;;;20.52;100.00
31082;BME280;17737;52.586;13.284;2023-07-16T05:12:31;100685.72;;;20.67;100.00
31082;BME280;17737;52.586;13.284;2023-07-16T05:14:59;100709.19;;;20.75;100.00
31082;BME280;17737;52.586;13.284;2023-07-16T05:17:27;100713.47;;;20.71;100.00
31082;BME280;17737;52.586;13.284;2023-07-16T05:19:55;100698.84;;;20.77;100.00
31082;BME280;17737;52.586;13.284;2023-07-16T05:22:24;100696.47;;;20.80;100.00
31082;BME280;17737;52.586;13.284;2023-07-16T05:24:52;100702.09;;;20.97;100.00
31082;BME280;17737;52.586;13.284;2023-07-16T05:27:21;100714.78;;;21.09;100.00
31082;BME280;17737;52.586;13.284;2023-07-16T05:29:49;100704.50;;;21.51;100.00
31082;BME280;17737;52.586;13.284;2023-07-16T05:32:17;100694.81;;;23.01;100.00
31082;BME280;17737;52.586;13.284;2023-07-16T05:34:45;100698.16;;;23.36;100.00
31082;BME280;17737;52.586;13.284;2023-07-16T05:37:13;100700.84;;;22.25;100.00
31082;BME280;17737;52.586;13.284;2023-07-16T05:39:42;100698.13;;;21.85;100.00
31082;BME280;17737;52.586;13.284;2023-07-16T05:42:10;100700.91;;;21.62;100.00
31082;BME280;17737;52.586;13.284;2023-07-16T05:44:39;100704.91;;;21.71;100.00
31082;BME280;17737;52.586;13.284;2023-07-16T05:47:08;100709.16;;;22.02;100.00
31082;BME280;17737;52.586;13.284;2023-07-16T05:49:36;100710.00;;;22.30;100.00
31082;BME280;17737;52.586;13.284;2023-07-16T05:52:05;100703.69;;;22.30;100.00
31082;BME280;17737;52.586;13.284;2023-07-16T05:54:34;100699.78;;;21.98;100.00
31082;BME280;17737;52.586;13.284;2023-07-16T05:57:02;100696.97;;;22.09;100.00
31082;BME280;17737;52.586;13.284;2023-07-16T05:59:30;100693.03;;;22.05;100.00
31082;BME280;17737;52.586;13.284;2023-07-16T06:02:02;100701.44;;;21.99;100.00
31082;BME280;17737;52.586;13.284;2023-07-16T06:04:30;100708.44;;;22.06;100.00
31082;BME280;17737;52.586;13.284;2023-07-16T06:06:58;100713.44;;;22.09;100.00
31082;BME280;17737;52.586;13.284;2023-07-16T06:09:26;100711.84;;;22.25;100.00
31082;BME280;17737;52.586;13.284;2023-07-16T06:11:54;100707.16;;;22.25;100.00
31082;BME280;17737;52.586;13.284;2023-07-16T06:14:22;100710.34;;;22.34;100.00
31082;BME280;17737;52.586;13.284;2023-07-16T06:16:50;100699.69;;;22.37;100.00
31082;BME280;17737;52.586;13.284;2023-07-16T06:19:20;100705.72;;;22.51;100.00
31082;BME280;17737;52.586;13.284;2023-07-16T06:21:48;100711.28;;;22.68;100.00
31082;BME280;17737;52.586;13.284;2023-07-16T06:24:16;100711.28;;;22.68;100.00
31082;BME280;17737;52.586;13.284;2023-07-16T06:26:44;100721.78;;;22.71;100.00
31082;BME280;17737;52.586;13.284;2023-07-16T06:29:14;100712.13;;;22.85;100.00
31082;BME280;17737;52.586;13.284;2023-07-16T06:31:42;100711.97;;;22.75;100.00
31082;BME280;17737;52.586;13.284;2023-07-16T06:34:11;100718.88;;;22.77;100.00
31082;BME280;17737;52.586;13.284;2023-07-16T06:36:40;100719.03;;;22.87;100.00
31082;BME280;17737;52.586;13.284;2023-07-16T06:39:09;100722.94;;;23.08;100.00
31082;BME280;17737;52.586;13.284;2023-07-16T06:41:37;100724.94;;;23.12;100.00
31082;BME280;17737;52.586;13.284;2023-07-16T06:44:05;100724.03;;;23.23;100.00
31082;BME280;17737;52.586;13.284;2023-07-16T06:46:33;100724.94;;;23.45;100.00
31082;BME280;17737;52.586;13.284;2023-07-16T06:49:01;100725.63;;;23.36;100.00
31082;BME280;17737;52.586;13.284;2023-07-16T06:51:29;100723.25;;;23.61;100.00
31082;BME280;17737;52.586;13.284;2023-07-16T06:54:00;100725.41;;;23.59;100.00
31082;BME280;17737;52.586;13.284;2023-07-16T06:56:28;100728.63;;;23.94;100.00
31082;BME280;17737;52.586;13.284;2023-07-16T06:58:56;100727.25;;;24.13;100.00
31082;BME280;17737;52.586;13.284;2023-07-16T07:01:24;100729.78;;;23.98;100.00
31082;BME280;17737;52.586;13.284;2023-07-16T07:03:54;100732.28;;;23.78;100.00
31082;BME280;17737;52.586;13.284;2023-07-16T07:06:22;100735.47;;;23.70;100.00
31082;BME280;17737;52.586;13.284;2023-07-16T07:08:51;100738.94;;;23.99;100.00
31082;BME280;17737;52.586;13.284;2023-07-16T07:11:21;100743.56;;;23.98;100.00
31082;BME280;17737;52.586;13.284;2023-07-16T07:13:49;100744.94;;;23.79;100.00
31082;BME280;17737;52.586;13.284;2023-07-16T07:16:17;100742.94;;;24.13;100.00
31082;BME280;17737;52.586;13.284;2023-07-16T07:18:46;100751.66;;;24.05;100.00
31082;BME280;17737;52.586;13.284;2023-07-16T07:21:14;100744.31;;;24.37;100.00
31082;BME280;17737;52.586;13.284;2023-07-16T07:23:42;100746.31;;;24.41;97.79
31082;BME280;17737;52.586;13.284;2023-07-16T07:26:10;100740.28;;;24.44;97.61
31082;BME280;17737;52.586;13.284;2023-07-16T07:28:39;100752.63;;;23.77;100.00
31082;BME280;17737;52.586;13.284;2023-07-16T07:31:07;100764.97;;;23.75;100.00
31082;BME280;17737;52.586;13.284;2023-07-16T07:33:35;100765.97;;;23.85;100.00
31082;BME280;17737;52.586;13.284;2023-07-16T07:36:04;100773.56;;;23.78;100.00
31082;BME280;17737;52.586;13.284;2023-07-16T07:38:32;100778.41;;;23.71;100.00
31082;BME280;17737;52.586;13.284;2023-07-16T07:41:00;100786.69;;;23.93;100.00
31082;BME280;17737;52.586;13.284;2023-07-16T07:43:29;100780.06;;;24.10;100.00
31082;BME280;17737;52.586;13.284;2023-07-16T07:45:58;100781.66;;;24.06;100.00
31082;BME280;17737;52.586;13.284;2023-07-16T07:48:26;100777.25;;;24.05;98.00
31082;BME280;17737;52.586;13.284;2023-07-16T07:50:54;100789.69;;;23.91;96.04
31082;BME280;17737;52.586;13.284;2023-07-16T07:53:22;100795.84;;;23.98;92.38
31082;BME280;17737;52.586;13.284;2023-07-16T07:55:50;100790.84;;;24.12;88.71
31082;BME280;17737;52.586;13.284;2023-07-16T07:58:18;100792.81;;;24.38;87.14
31082;BME280;17737;52.586;13.284;2023-07-16T08:00:46;100790.13;;;24.21;85.49
31082;BME280;17737;52.586;13.284;2023-07-16T08:03:15;100799.59;;;24.09;84.64
31082;BME280;17737;52.586;13.284;2023-07-16T08:05:43;100796.09;;;23.97;84.58
31082;BME280;17737;52.586;13.284;2023-07-16T08:08:11;100802.63;;;24.07;83.21
31082;BME280;17737;52.586;13.284;2023-07-16T08:10:39;100801.66;;;24.18;82.79
31082;BME280;17737;52.586;13.284;2023-07-16T08:13:08;100794.53;;;24.44;82.24
31082;BME280;17737;52.586;13.284;2023-07-16T08:15:36;100791.78;;;24.22;82.14
31082;BME280;17737;52.586;13.284;2023-07-16T08:18:04;100791.34;;;24.30;79.11
31082;BME280;17737;52.586;13.284;2023-07-16T08:20:35;100792.66;;;24.49;74.84
31082;BME280;17737;52.586;13.284;2023-07-16T08:23:03;100795.63;;;24.43;74.15
31082;BME280;17737;52.586;13.284;2023-07-16T08:25:31;100801.06;;;24.16;74.14
31082;BME280;17737;52.586;13.284;2023-07-16T08:28:02;100803.88;;;24.21;73.63
31082;BME280;17737;52.586;13.284;2023-07-16T08:30:32;100807.03;;;24.08;73.74
31082;BME280;17737;52.586;13.284;2023-07-16T08:33:00;100808.00;;;24.19;74.62
31082;BME280;17737;52.586;13.284;2023-07-16T08:35:28;100810.09;;;24.33;73.62
31082;BME280;17737;52.586;13.284;2023-07-16T08:37:57;100815.81;;;24.70;71.59
31082;BME280;17737;52.586;13.284;2023-07-16T08:40:26;100814.16;;;24.96;69.16
31082;BME280;17737;52.586;13.284;2023-07-16T08:42:54;100821.97;;;25.09;68.98
31082;BME280;17737;52.586;13.284;2023-07-16T08:45:25;100814.97;;;24.96;70.76
31082;BME280;17737;52.586;13.284;2023-07-16T08:47:56;100827.41;;;24.99;68.96
31082;BME280;17737;52.586;13.284;2023-07-16T08:50:25;100825.81;;;25.03;67.00
31082;BME280;17737;52.586;13.284;2023-07-16T08:53:00;100827.09;;;24.95;64.56
31082;BME280;17737;52.586;13.284;2023-07-16T08:55:29;100832.94;;;24.55;64.83
31082;BME280;17737;52.586;13.284;2023-07-16T08:57:57;100833.34;;;24.21;66.31
31082;BME280;17737;52.586;13.284;2023-07-16T09:00:26;100829.06;;;24.08;67.85
31082;BME280;17737;52.586;13.284;2023-07-16T09:02:55;100825.84;;;24.59;68.32
31082;BME280;17737;52.586;13.284;2023-07-16T09:05:23;100825.38;;;24.89;66.32
31082;BME280;17737;52.586;13.284;2023-07-16T09:08:07;100826.25;;;25.21;65.45
31082;BME280;17737;52.586;13.284;2023-07-16T09:10:36;100820.78;;;25.26;62.48
31082;BME280;17737;52.586;13.284;2023-07-16T09:13:04;100827.88;;;25.49;61.10
31082;BME280;17737;52.586;13.284;2023-07-16T09:15:32;100831.94;;;25.36;59.91
31082;BME280;17737;52.586;13.284;2023-07-16T09:18:01;100832.63;;;25.53;58.35
31082;BME280;17737;52.586;13.284;2023-07-16T09:20:29;100844.00;;;25.04;57.99
31082;BME280;17737;52.586;13.284;2023-07-16T09:22:58;100839.69;;;25.13;59.23
31082;BME280;17737;52.586;13.284;2023-07-16T09:25:29;100842.44;;;25.39;59.43
31082;BME280;17737;52.586;13.284;2023-07-16T09:28:01;100833.38;;;25.80;60.62
31082;BME280;17737;52.586;13.284;2023-07-16T09:30:31;100835.50;;;26.10;57.96
31082;BME280;17737;52.586;13.284;2023-07-16T09:33:03;100836.34;;;26.11;56.32
31082;BME280;17737;52.586;13.284;2023-07-16T09:35:37;100836.25;;;25.59;55.95
31082;BME280;17737;52.586;13.284;2023-07-16T09:38:06;100829.91;;;25.00;57.30
31082;BME280;17737;52.586;13.284;2023-07-16T09:40:37;100840.38;;;25.30;57.62
31082;BME280;17737;52.586;13.284;2023-07-16T09:43:06;100840.44;;;25.35;56.78
31082;BME280;17737;52.586;13.284;2023-07-16T09:45:34;100846.97;;;25.29;56.98
31082;BME280;17737;52.586;13.284;2023-07-16T09:48:03;100839.81;;;25.28;57.71
31082;BME280;17737;52.586;13.284;2023-07-16T09:50:33;100836.06;;;25.39;55.99
31082;BME280;17737;52.586;13.284;2023-07-16T09:53:03;100840.34;;;25.25;52.53
31082;BME280;17737;52.586;13.284;2023-07-16T09:55:36;100832.78;;;25.15;50.41
31082;BME280;17737;52.586;13.284;2023-07-16T09:58:08;100841.75;;;25.01;50.58
31082;BME280;17737;52.586;13.284;2023-07-16T10:00:39;100843.06;;;25.20;50.61
31082;BME280;17737;52.586;13.284;2023-07-16T10:03:09;100839.78;;;25.23;51.75
31082;BME280;17737;52.586;13.284;2023-07-16T10:05:38;100844.50;;;25.27;52.32
31082;BME280;17737;52.586;13.284;2023-07-16T10:08:16;100842.78;;;25.21;52.92
31082;BME280;17737;52.586;13.284;2023-07-16T10:10:47;100848.78;;;25.40;53.91
31082;BME280;17737;52.586;13.284;2023-07-16T10:13:18;100844.19;;;25.50;53.79
31082;BME280;17737;52.586;13.284;2023-07-16T10:15:51;100845.53;;;25.84;54.74
31082;BME280;17737;52.586;13.284;2023-07-16T10:18:25;100851.56;;;26.13;53.59
31082;BME280;17737;52.586;13.284;2023-07-16T10:21:03;100849.53;;;26.60;52.77
31082;BME280;17737;52.586;13.284;2023-07-16T10:23:37;100847.00;;;26.44;52.15
31082;BME280;17737;52.586;13.284;2023-07-16T10:26:11;100851.06;;;26.31;52.43
31082;BME280;17737;52.586;13.284;2023-07-16T10:28:44;100839.84;;;26.53;51.20
31082;BME280;17737;52.586;13.284;2023-07-16T10:31:21;100856.22;;;26.64;50.98
31082;BME280;17737;52.586;13.284;2023-07-16T10:34:00;100852.16;;;26.25;51.52
31082;BME280;17737;52.586;13.284;2023-07-16T10:36:28;100845.94;;;26.55;51.92
31082;BME280;17737;52.586;13.284;2023-07-16T10:39:02;100853.25;;;26.81;50.64
31082;BME280;17737;52.586;13.284;2023-07-16T10:41:33;100854.69;;;27.13;49.61
31082;BME280;17737;52.586;13.284;2023-07-16T10:44:01;100854.88;;;26.77;49.18
31082;BME280;17737;52.586;13.284;2023-07-16T10:46:31;100850.78;;;26.99;49.09
31082;BME280;17737;52.586;13.284;2023-07-16T10:49:00;100850.81;;;27.25;46.81
31082;BME280;17737;52.586;13.284;2023-07-16T10:51:28;100851.81;;;26.68;48.07
31082;BME280;17737;52.586;13.284;2023-07-16T10:53:57;100848.72;;;26.60;48.75
31082;BME280;17737;52.586;13.284;2023-07-16T10:56:25;100852.31;;;26.04;50.28
31082;BME280;17737;52.586;13.284;2023-07-16T10:58:54;100851.88;;;26.22;49.68
31082;BME280;17737;52.586;13.284;2023-07-16T11:01:22;100842.78;;;26.26;50.47
31082;BME280;17737;52.586;13.284;2023-07-16T11:03:50;100849.09;;;26.83;50.33
31082;BME280;17737;52.586;13.284;2023-07-16T11:06:19;100849.69;;;27.00;47.99
31082;BME280;17737;52.586;13.284;2023-07-16T11:08:47;100848.66;;;27.37;47.03
31082;BME280;17737;52.586;13.284;2023-07-16T11:11:15;100849.13;;;26.93;47.60
31082;BME280;17737;52.586;13.284;2023-07-16T11:13:43;100852.72;;;26.94;48.90
31082;BME280;17737;52.586;13.284;2023-07-16T11:16:15;100849.00;;;26.63;49.75
31082;BME280;17737;52.586;13.284;2023-07-16T11:18:44;100849.94;;;26.84;48.86
31082;BME280;17737;52.586;13.284;2023-07-16T11:21:12;100854.13;;;27.06;44.88
31082;BME280;17737;52.586;13.284;2023-07-16T11:23:40;100849.22;;;27.34;44.67
31082;BME280;17737;52.586;13.284;2023-07-16T11:26:08;100850.25;;;27.12;46.32
31082;BME280;17737;52.586;13.284;2023-07-16T11:28:37;100848.66;;;27.32;45.16
31082;BME280;17737;52.586;13.284;2023-07-16T11:31:15;100855.78;;;27.28;43.99
31082;BME280;17737;52.586;13.284;2023-07-16T11:33:44;100851.38;;;27.27;45.48
31082;BME280;17737;52.586;13.284;2023-07-16T11:36:13;100856.66;;;27.48;45.73
31082;BME280;17737;52.586;13.284;2023-07-16T11:38:42;100856.34;;;27.14;46.92
31082;BME280;17737;52.586;13.284;2023-07-16T11:41:10;100854.41;;;27.00;47.81
31082;BME280;17737;52.586;13.284;2023-07-16T11:43:40;100860.84;;;26.54;48.82
31082;BME280;17737;52.586;13.284;2023-07-16T11:46:16;100857.16;;;26.33;49.14
31082;BME280;17737;52.586;13.284;2023-07-16T11:48:45;100859.41;;;26.41;49.53
31082;BME280;17737;52.586;13.284;2023-07-16T11:51:13;100854.50;;;26.53;50.43
31082;BME280;17737;52.586;13.284;2023-07-16T11:53:41;100864.66;;;27.14;49.13
31082;BME280;17737;52.586;13.284;2023-07-16T11:56:09;100858.03;;;27.10;45.52
31082;BME280;17737;52.586;13.284;2023-07-16T11:58:37;100854.44;;;27.25;44.16
31082;BME280;17737;52.586;13.284;2023-07-16T12:01:05;100852.53;;;27.51;43.55
31082;BME280;17737;52.586;13.284;2023-07-16T12:03:35;100856.41;;;27.55;43.36
31082;BME280;17737;52.586;13.284;2023-07-16T12:06:02;100857.16;;;26.95;41.33
31082;BME280;17737;52.586;13.284;2023-07-16T12:08:30;100853.00;;;26.97;42.55
31082;BME280;17737;52.586;13.284;2023-07-16T12:10:58;100858.44;;;26.67;42.98
31082;BME280;17737;52.586;13.284;2023-07-16T12:13:28;100858.03;;;27.16;43.33
31082;BME280;17737;52.586;13.284;2023-07-16T12:15:57;100855.88;;;27.33;44.35
31082;BME280;17737;52.586;13.284;2023-07-16T12:18:25;100865.53;;;27.85;43.99
31082;BME280;17737;52.586;13.284;2023-07-16T12:20:55;100859.66;;;28.22;41.39
31082;BME280;17737;52.586;13.284;2023-07-16T12:23:23;100865.81;;;28.04;39.91
31082;BME280;17737;52.586;13.284;2023-07-16T12:25:51;100863.31;;;28.02;39.85
31082;BME280;17737;52.586;13.284;2023-07-16T12:28:19;100858.59;;;27.98;37.94
31082;BME280;17737;52.586;13.284;2023-07-16T12:30:48;100864.09;;;28.13;37.56
31082;BME280;17737;52.586;13.284;2023-07-16T12:33:16;100875.22;;;27.98;36.59
31082;BME280;17737;52.586;13.284;2023-07-16T12:35:44;100875.75;;;28.05;36.09
31082;BME280;17737;52.586;13.284;2023-07-16T12:38:15;100863.84;;;28.09;34.15
31082;BME280;17737;52.586;13.284;2023-07-16T12:40:43;100863.06;;;27.39;34.36
31082;BME280;17737;52.586;13.284;2023-07-16T12:43:11;100871.63;;;27.42;34.15
31082;BME280;17737;52.586;13.284;2023-07-16T12:45:39;100867.78;;;27.63;33.83
31082;BME280;17737;52.586;13.284;2023-07-16T12:48:07;100869.16;;;27.51;34.72